sensor_id;sensor_type;location;lat;lon;timestamp;temperature;humidity
18950;DHT22;9608;49.288;8.130;2022-09-20T00:00:28;12.10;99.90
18950;DHT22;9608;49.288;8.130;2022-09-20T00:02:55;12.10;99.90
18950;DHT22;9608;49.288;8.130;2022-09-20T00:05:22;12.20;99.90
18950;DHT22;9608;49.288;8.130;2022-09-20T00:07:49;12.30;99.90
18950;DHT22;9608;49.288;8.130;2022-09-20T00:10:16;12.40;99.90
18950;DHT22;9608;49.288;8.130;2022-09-20T00:12:43;12.50;99.90
18950;DHT22;9608;49.288;8.130;2022-09-20T00:15:10;12.40;99.90
18950;DHT22;9608;49.288;8.130;2022-09-20T00:17:38;12.40;99.90
18950;DHT22;9608;49.288;8.130;2022-09-20T00:20:05;12.40;99.90
18950;DHT22;9608;49.288;8.130;2022-09-20T00:22:32;12.50;99.90
18950;DHT22;9608;49.288;8.130;2022-09-20T00:24:58;12.60;99.90
18950;DHT22;9608;49.288;8.130;2022-09-20T00:27:25;12.50;99.90
18950;DHT22;9608;49.288;8.130;2022-09-20T00:29:52;12.50;99.90
18950;DHT22;9608;49.288;8.130;2022-09-20T00:32:19;12.40;99.90
18950;DHT22;9608;49.288;8.130;2022-09-20T00:34:47;12.50;99.90
18950;DHT22;9608;49.288;8.130;2022-09-20T00:37:31;12.30;99.90
18950;DHT22;9608;49.288;8.130;2022-09-20T00:39:58;12.30;99.90
18950;DHT22;9608;49.288;8.130;2022-09-20T00:42:26;12.30;99.90
18950;DHT22;9608;49.288;8.130;2022-09-20T00:44:56;12.30;99.90
18950;DHT22;9608;49.288;8.130;2022-09-20T00:47:38;12.30;99.90
18950;DHT22;9608;49.288;8.130;2022-09-20T00:50:17;12.30;99.90
18950;DHT22;9608;49.288;8.130;2022-09-20T00:52:52;12.30;99.90
18950;DHT22;9608;49.288;8.130;2022-09-20T00:55:21;12.20;99.90
18950;DHT22;9608;49.288;8.130;2022-09-20T00:57:48;12.20;99.90
18950;DHT22;9608;49.288;8.130;2022-09-20T01:00:15;12.20;99.90
18950;DHT22;9608;49.288;8.130;2022-09-20T01:02:45;12.40;99.90
18950;DHT22;9608;49.288;8.130;2022-09-20T01:05:14;12.40;99.90
18950;DHT22;9608;49.288;8.130;2022-09-20T01:07:43;12.40;99.90
18950;DHT22;9608;49.288;8.130;2022-09-20T01:10:12;12.40;99.90
18950;DHT22;9608;49.288;8.130;2022-09-20T01:12:39;12.40;99.90
18950;DHT22;9608;49.288;8.130;2022-09-20T01:15:09;12.40;99.90
18950;DHT22;9608;49.288;8.130;2022-09-20T01:17:38;12.50;99.90
18950;DHT22;9608;49.288;8.130;2022-09-20T01:20:11;12.40;99.90
18950;DHT22;9608;49.288;8.130;2022-09-20T01:26:10;12.40;99.90
18950;DHT22;9608;49.288;8.130;2022-09-20T01:28:45;12.50;99.90
18950;DHT22;9608;49.288;8.130;2022-09-20T01:31:16;12.50;99.90
18950;DHT22;9608;49.288;8.130;2022-09-20T01:33:47;12.40;99.90
18950;DHT22;9608;49.288;8.130;2022-09-20T01:36:19;12.40;99.90
18950;DHT22;9608;49.288;8.130;2022-09-20T01:38:56;12.40;99.90
18950;DHT22;9608;49.288;8.130;2022-09-20T01:41:30;12.40;99.90
18950;DHT22;9608;49.288;8.130;2022-09-20T01:44:05;12.40;99.90
18950;DHT22;9608;49.288;8.130;2022-09-20T01:46:35;12.40;99.90
18950;DHT22;9608;49.288;8.130;2022-09-20T01:49:10;12.40;99.90
18950;DHT22;9608;49.288;8.130;2022-09-20T01:52:21;12.10;99.90
18950;DHT22;9608;49.288;8.130;2022-09-20T01:55:18;12.10;99.90
18950;DHT22;9608;49.288;8.130;2022-09-20T02:01:17;11.80;99.90
18950;DHT22;9608;49.288;8.130;2022-09-20T02:04:12;11.70;99.90
18950;DHT22;9608;49.288;8.130;2022-09-20T02:06:51;11.60;99.90
18950;DHT22;9608;49.288;8.130;2022-09-20T02:09:48;11.60;99.90
18950;DHT22;9608;49.288;8.130;2022-09-20T02:12:30;11.80;99.90
18950;DHT22;9608;49.288;8.130;2022-09-20T02:15:02;11.70;99.90
18950;DHT22;9608;49.288;8.130;2022-09-20T02:17:43;11.60;99.90
18950;DHT22;9608;49.288;8.130;2022-09-20T02:20:22;11.60;99.90
18950;DHT22;9608;49.288;8.130;2022-09-20T02:23:09;11.70;99.90
18950;DHT22;9608;49.288;8.130;2022-09-20T02:25:49;11.70;99.90
18950;DHT22;9608;49.288;8.130;2022-09-20T02:28:24;11.70;99.90
18950;DHT22;9608;49.288;8.130;2022-09-20T02:31:01;11.60;99.90
18950;DHT22;9608;49.288;8.130;2022-09-20T02:33:56;11.50;99.90
18950;DHT22;9608;49.288;8.130;2022-09-20T02:36:34;11.30;99.90
18950;DHT22;9608;49.288;8.130;2022-09-20T02:39:10;11.30;99.90
18950;DHT22;9608;49.288;8.130;2022-09-20T02:41:50;11.20;99.90
18950;DHT22;9608;49.288;8.130;2022-09-20T02:44:27;11.20;99.90
18950;DHT22;9608;49.288;8.130;2022-09-20T02:46:59;11.20;99.90
18950;DHT22;9608;49.288;8.130;2022-09-20T02:49:33;11.10;99.90
18950;DHT22;9608;49.288;8.130;2022-09-20T02:52:06;11.10;99.90
18950;DHT22;9608;49.288;8.130;2022-09-20T02:54:45;11.10;99.90
18950;DHT22;9608;49.288;8.130;2022-09-20T02:57:21;11.10;99.90
18950;DHT22;9608;49.288;8.130;2022-09-20T02:59:55;11.20;99.90
18950;DHT22;9608;49.288;8.130;2022-09-20T03:02:27;11.20;99.90
18950;DHT22;9608;49.288;8.130;2022-09-20T03:05:08;11.20;99.90
18950;DHT22;9608;49.288;8.130;2022-09-20T03:07:57;11.30;99.90
18950;DHT22;9608;49.288;8.130;2022-09-20T03:10:30;11.40;99.90
18950;DHT22;9608;49.288;8.130;2022-09-20T03:13:12;11.50;99.90
18950;DHT22;9608;49.288;8.130;2022-09-20T03:15:51;11.50;99.90
18950;DHT22;9608;49.288;8.130;2022-09-20T03:18:32;11.50;99.90
18950;DHT22;9608;49.288;8.130;2022-09-20T03:21:13;11.60;99.90
18950;DHT22;9608;49.288;8.130;2022-09-20T03:23:53;11.60;99.90
18950;DHT22;9608;49.288;8.130;2022-09-20T03:26:33;11.60;99.90
18950;DHT22;9608;49.288;8.130;2022-09-20T03:29:07;11.60;99.90
18950;DHT22;9608;49.288;8.130;2022-09-20T03:31:49;11.60;99.90
18950;DHT22;9608;49.288;8.130;2022-09-20T03:34:36;11.70;99.90
18950;DHT22;9608;49.288;8.130;2022-09-20T03:37:21;11.80;99.90
18950;DHT22;9608;49.288;8.130;2022-09-20T03:40:22;11.60;99.90
18950;DHT22;9608;49.288;8.130;2022-09-20T03:42:52;11.40;99.90
18950;DHT22;9608;49.288;8.130;2022-09-20T03:45:31;11.20;99.90
18950;DHT22;9608;49.288;8.130;2022-09-20T03:48:29;11.10;99.90
18950;DHT22;9608;49.288;8.130;2022-09-20T03:51:07;11.10;99.90
18950;DHT22;9608;49.288;8.130;2022-09-20T03:53:51;11.30;99.90
18950;DHT22;9608;49.288;8.130;2022-09-20T03:59:25;11.30;99.90
18950;DHT22;9608;49.288;8.130;2022-09-20T04:02:07;11.40;99.90
18950;DHT22;9608;49.288;8.130;2022-09-20T04:04:43;11.40;99.90
18950;DHT22;9608;49.288;8.130;2022-09-20T04:07:16;11.40;99.90
18950;DHT22;9608;49.288;8.130;2022-09-20T04:10:20;11.40;99.90
18950;DHT22;9608;49.288;8.130;2022-09-20T04:13:01;11.40;99.90
18950;DHT22;9608;49.288;8.130;2022-09-20T04:15:42;11.30;99.90
18950;DHT22;9608;49.288;8.130;2022-09-20T04:18:19;11.40;99.90
18950;DHT22;9608;49.288;8.130;2022-09-20T04:20:51;11.40;99.90
18950;DHT22;9608;49.288;8.130;2022-09-20T04:23:32;11.30;99.90
18950;DHT22;9608;49.288;8.130;2022-09-20T04:26:03;11.00;99.90
18950;DHT22;9608;49.288;8.130;2022-09-20T04:28:35;10.90;99.90
18950;DHT22;9608;49.288;8.130;2022-09-20T04:31:13;10.90;99.90
18950;DHT22;9608;49.288;8.130;2022-09-20T04:33:47;11.00;99.90
18950;DHT22;9608;49.288;8.130;2022-09-20T04:36:34;10.90;99.90
18950;DHT22;9608;49.288;8.130;2022-09-20T04:39:17;10.90;99.90
18950;DHT22;9608;49.288;8.130;2022-09-20T04:42:24;11.00;99.90
18950;DHT22;9608;49.288;8.130;2022-09-20T04:45:31;10.90;99.90
18950;DHT22;9608;49.288;8.130;2022-09-20T04:48:33;10.80;99.90
18950;DHT22;9608;49.288;8.130;2022-09-20T04:54:44;10.90;99.90
18950;DHT22;9608;49.288;8.130;2022-09-20T04:57:31;10.80;99.90
18950;DHT22;9608;49.288;8.130;2022-09-20T05:00:04;10.80;99.90
18950;DHT22;9608;49.288;8.130;2022-09-20T05:03:02;10.70;99.90
18950;DHT22;9608;49.288;8.130;2022-09-20T05:06:18;10.70;99.90
18950;DHT22;9608;49.288;8.130;2022-09-20T05:12:30;10.80;99.90
18950;DHT22;9608;49.288;8.130;2022-09-20T05:18:09;10.90;99.90
18950;DHT22;9608;49.288;8.130;2022-09-20T05:21:04;10.80;99.90
18950;DHT22;9608;49.288;8.130;2022-09-20T05:23:47;10.90;99.90
18950;DHT22;9608;49.288;8.130;2022-09-20T05:26:25;11.00;99.90
18950;DHT22;9608;49.288;8.130;2022-09-20T05:28:59;11.20;99.90
18950;DHT22;9608;49.288;8.130;2022-09-20T05:31:33;11.30;99.90
18950;DHT22;9608;49.288;8.130;2022-09-20T05:34:11;11.40;99.90
18950;DHT22;9608;49.288;8.130;2022-09-20T05:36:47;11.50;99.90
18950;DHT22;9608;49.288;8.130;2022-09-20T05:39:35;11.70;99.90
18950;DHT22;9608;49.288;8.130;2022-09-20T05:42:11;11.90;99.90
18950;DHT22;9608;49.288;8.130;2022-09-20T05:45:00;12.10;99.90
18950;DHT22;9608;49.288;8.130;2022-09-20T05:47:35;12.10;99.90
18950;DHT22;9608;49.288;8.130;2022-09-20T05:50:28;12.20;99.90
18950;DHT22;9608;49.288;8.130;2022-09-20T05:53:23;12.10;99.90
18950;DHT22;9608;49.288;8.130;2022-09-20T05:56:04;11.90;99.90
18950;DHT22;9608;49.288;8.130;2022-09-20T05:58:51;11.90;99.90
18950;DHT22;9608;49.288;8.130;2022-09-20T06:01:24;12.00;99.90
18950;DHT22;9608;49.288;8.130;2022-09-20T06:03:58;11.90;99.90
18950;DHT22;9608;49.288;8.130;2022-09-20T06:06:42;12.10;99.90
18950;DHT22;9608;49.288;8.130;2022-09-20T06:09:33;12.20;99.90
18950;DHT22;9608;49.288;8.130;2022-09-20T06:12:14;12.10;99.90
18950;DHT22;9608;49.288;8.130;2022-09-20T06:14:50;12.20;99.90
18950;DHT22;9608;49.288;8.130;2022-09-20T06:17:28;12.10;99.90
18950;DHT22;9608;49.288;8.130;2022-09-20T06:20:09;11.90;99.90
18950;DHT22;9608;49.288;8.130;2022-09-20T06:22:40;11.90;99.90
18950;DHT22;9608;49.288;8.130;2022-09-20T06:25:16;11.90;99.90
18950;DHT22;9608;49.288;8.130;2022-09-20T06:27:49;12.00;99.90
18950;DHT22;9608;49.288;8.130;2022-09-20T06:30:21;12.20;99.90
18950;DHT22;9608;49.288;8.130;2022-09-20T06:32:56;12.40;99.90
18950;DHT22;9608;49.288;8.130;2022-09-20T06:35:29;12.60;99.90
18950;DHT22;9608;49.288;8.130;2022-09-20T06:38:05;12.70;99.90
18950;DHT22;9608;49.288;8.130;2022-09-20T06:40:52;12.80;99.90
18950;DHT22;9608;49.288;8.130;2022-09-20T06:43:37;12.90;99.90
18950;DHT22;9608;49.288;8.130;2022-09-20T06:46:07;13.10;99.90
18950;DHT22;9608;49.288;8.130;2022-09-20T06:48:36;13.10;99.90
18950;DHT22;9608;49.288;8.130;2022-09-20T06:51:05;13.30;99.90
18950;DHT22;9608;49.288;8.130;2022-09-20T06:53:35;13.40;99.90
18950;DHT22;9608;49.288;8.130;2022-09-20T06:56:03;13.50;99.90
18950;DHT22;9608;49.288;8.130;2022-09-20T06:58:31;13.70;99.90
18950;DHT22;9608;49.288;8.130;2022-09-20T07:01:18;14.00;99.90
18950;DHT22;9608;49.288;8.130;2022-09-20T07:03:48;14.30;99.90
18950;DHT22;9608;49.288;8.130;2022-09-20T07:06:15;14.30;99.90
18950;DHT22;9608;49.288;8.130;2022-09-20T07:08:44;14.50;99.90
18950;DHT22;9608;49.288;8.130;2022-09-20T07:11:13;14.70;99.90
18950;DHT22;9608;49.288;8.130;2022-09-20T07:13:41;14.90;99.90
18950;DHT22;9608;49.288;8.130;2022-09-20T07:16:11;15.00;99.90
18950;DHT22;9608;49.288;8.130;2022-09-20T07:18:39;14.80;99.90
18950;DHT22;9608;49.288;8.130;2022-09-20T07:21:10;14.90;99.90
18950;DHT22;9608;49.288;8.130;2022-09-20T07:23:37;14.90;99.90
18950;DHT22;9608;49.288;8.130;2022-09-20T07:26:05;15.10;99.90
18950;DHT22;9608;49.288;8.130;2022-09-20T07:28:33;15.20;99.90
18950;DHT22;9608;49.288;8.130;2022-09-20T07:31:00;15.20;99.90
18950;DHT22;9608;49.288;8.130;2022-09-20T07:33:27;15.00;99.90
18950;DHT22;9608;49.288;8.130;2022-09-20T07:35:55;15.10;99.90
18950;DHT22;9608;49.288;8.130;2022-09-20T07:38:26;15.00;99.90
18950;DHT22;9608;49.288;8.130;2022-09-20T07:40:54;15.10;99.90
18950;DHT22;9608;49.288;8.130;2022-09-20T07:43:22;15.10;99.90
18950;DHT22;9608;49.288;8.130;2022-09-20T07:45:50;14.90;99.90
18950;DHT22;9608;49.288;8.130;2022-09-20T07:48:20;14.80;99.90
18950;DHT22;9608;49.288;8.130;2022-09-20T07:50:50;14.80;99.90
18950;DHT22;9608;49.288;8.130;2022-09-20T07:53:17;14.70;99.90
18950;DHT22;9608;49.288;8.130;2022-09-20T07:55:59;14.80;99.90
18950;DHT22;9608;49.288;8.130;2022-09-20T07:58:26;14.90;99.90
18950;DHT22;9608;49.288;8.130;2022-09-20T08:00:56;15.10;99.90
18950;DHT22;9608;49.288;8.130;2022-09-20T08:03:23;15.10;99.90
18950;DHT22;9608;49.288;8.130;2022-09-20T08:05:57;15.00;99.90
18950;DHT22;9608;49.288;8.130;2022-09-20T08:08:26;14.80;99.90
18950;DHT22;9608;49.288;8.130;2022-09-20T08:11:02;14.50;99.90
18950;DHT22;9608;49.288;8.130;2022-09-20T08:13:33;14.50;99.90
18950;DHT22;9608;49.288;8.130;2022-09-20T08:16:01;14.90;99.90
18950;DHT22;9608;49.288;8.130;2022-09-20T08:18:31;15.20;99.90
18950;DHT22;9608;49.288;8.130;2022-09-20T08:21:02;15.50;99.90
18950;DHT22;9608;49.288;8.130;2022-09-20T08:23:33;15.80;99.90
18950;DHT22;9608;49.288;8.130;2022-09-20T08:26:05;16.20;99.90
18950;DHT22;9608;49.288;8.130;2022-09-20T08:28:33;16.30;99.90
18950;DHT22;9608;49.288;8.130;2022-09-20T08:31:01;16.50;99.90
18950;DHT22;9608;49.288;8.130;2022-09-20T08:33:29;16.60;99.90
18950;DHT22;9608;49.288;8.130;2022-09-20T08:35:56;16.40;99.90
18950;DHT22;9608;49.288;8.130;2022-09-20T08:38:25;16.30;99.90
18950;DHT22;9608;49.288;8.130;2022-09-20T08:40:56;16.10;99.90
18950;DHT22;9608;49.288;8.130;2022-09-20T08:43:33;15.90;99.90
18950;DHT22;9608;49.288;8.130;2022-09-20T08:46:03;15.60;99.90
18950;DHT22;9608;49.288;8.130;2022-09-20T08:48:32;15.80;99.90
18950;DHT22;9608;49.288;8.130;2022-09-20T08:51:02;15.90;99.90
18950;DHT22;9608;49.288;8.130;2022-09-20T08:53:32;16.10;99.90
18950;DHT22;9608;49.288;8.130;2022-09-20T08:56:00;16.60;99.90
18950;DHT22;9608;49.288;8.130;2022-09-20T08:58:31;16.70;99.90
18950;DHT22;9608;49.288;8.130;2022-09-20T09:00:58;17.10;99.90
18950;DHT22;9608;49.288;8.130;2022-09-20T09:03:26;17.10;99.90
18950;DHT22;9608;49.288;8.130;2022-09-20T09:05:55;17.40;99.90
18950;DHT22;9608;49.288;8.130;2022-09-20T09:08:27;17.50;99.90
18950;DHT22;9608;49.288;8.130;2022-09-20T09:10:58;17.90;99.90
18950;DHT22;9608;49.288;8.130;2022-09-20T09:13:41;18.10;99.90
18950;DHT22;9608;49.288;8.130;2022-09-20T09:16:12;17.70;99.90
18950;DHT22;9608;49.288;8.130;2022-09-20T09:18:42;18.00;99.90
18950;DHT22;9608;49.288;8.130;2022-09-20T09:21:17;17.70;99.90
18950;DHT22;9608;49.288;8.130;2022-09-20T09:23:50;17.50;99.90
18950;DHT22;9608;49.288;8.130;2022-09-20T09:26:20;17.20;99.90
18950;DHT22;9608;49.288;8.130;2022-09-20T09:29:15;16.80;99.90
18950;DHT22;9608;49.288;8.130;2022-09-20T09:31:44;16.20;99.90
18950;DHT22;9608;49.288;8.130;2022-09-20T09:34:25;16.10;99.90
18950;DHT22;9608;49.288;8.130;2022-09-20T09:36:53;16.20;99.90
18950;DHT22;9608;49.288;8.130;2022-09-20T09:39:26;16.30;99.90
18950;DHT22;9608;49.288;8.130;2022-09-20T09:41:54;16.20;99.90
18950;DHT22;9608;49.288;8.130;2022-09-20T09:44:25;16.20;99.90
18950;DHT22;9608;49.288;8.130;2022-09-20T09:46:53;16.30;99.90
18950;DHT22;9608;49.288;8.130;2022-09-20T09:49:23;16.50;99.90
18950;DHT22;9608;49.288;8.130;2022-09-20T09:52:03;16.50;99.90
18950;DHT22;9608;49.288;8.130;2022-09-20T09:54:32;16.40;99.90
18950;DHT22;9608;49.288;8.130;2022-09-20T09:57:27;16.50;99.90
18950;DHT22;9608;49.288;8.130;2022-09-20T10:00:07;16.60;99.90
18950;DHT22;9608;49.288;8.130;2022-09-20T10:03:06;16.50;99.90
18950;DHT22;9608;49.288;8.130;2022-09-20T10:05:43;16.50;99.90
18950;DHT22;9608;49.288;8.130;2022-09-20T10:08:21;16.80;99.90
18950;DHT22;9608;49.288;8.130;2022-09-20T10:11:01;17.10;99.90
18950;DHT22;9608;49.288;8.130;2022-09-20T10:13:35;17.30;99.90
18950;DHT22;9608;49.288;8.130;2022-09-20T10:16:14;17.30;99.90
18950;DHT22;9608;49.288;8.130;2022-09-20T10:18:47;17.30;99.90
18950;DHT22;9608;49.288;8.130;2022-09-20T10:21:33;17.30;99.90
18950;DHT22;9608;49.288;8.130;2022-09-20T10:24:13;17.20;99.90
18950;DHT22;9608;49.288;8.130;2022-09-20T10:26:55;17.30;99.90
18950;DHT22;9608;49.288;8.130;2022-09-20T10:29:34;17.30;99.90
18950;DHT22;9608;49.288;8.130;2022-09-20T10:32:20;17.00;99.90
18950;DHT22;9608;49.288;8.130;2022-09-20T10:35:10;17.10;99.90
18950;DHT22;9608;49.288;8.130;2022-09-20T10:37:49;17.30;99.90
18950;DHT22;9608;49.288;8.130;2022-09-20T10:40:26;17.30;99.90
18950;DHT22;9608;49.288;8.130;2022-09-20T10:43:39;17.00;99.90
18950;DHT22;9608;49.288;8.130;2022-09-20T10:46:12;17.00;99.90
18950;DHT22;9608;49.288;8.130;2022-09-20T10:48:47;17.40;99.90
18950;DHT22;9608;49.288;8.130;2022-09-20T10:51:23;17.70;99.90
18950;DHT22;9608;49.288;8.130;2022-09-20T10:53:59;18.10;99.90
18950;DHT22;9608;49.288;8.130;2022-09-20T10:56:34;18.40;99.90
18950;DHT22;9608;49.288;8.130;2022-09-20T10:59:19;18.70;99.90
18950;DHT22;9608;49.288;8.130;2022-09-20T11:02:01;18.70;99.90
18950;DHT22;9608;49.288;8.130;2022-09-20T11:04:52;18.80;99.90
18950;DHT22;9608;49.288;8.130;2022-09-20T11:07:32;18.70;99.90
18950;DHT22;9608;49.288;8.130;2022-09-20T11:10:13;18.70;99.90
18950;DHT22;9608;49.288;8.130;2022-09-20T11:12:44;18.40;99.90
18950;DHT22;9608;49.288;8.130;2022-09-20T11:15:19;18.40;99.90
18950;DHT22;9608;49.288;8.130;2022-09-20T11:17:57;18.60;99.90
18950;DHT22;9608;49.288;8.130;2022-09-20T11:20:29;18.50;99.90
18950;DHT22;9608;49.288;8.130;2022-09-20T11:23:12;18.40;99.90
18950;DHT22;9608;49.288;8.130;2022-09-20T11:25:56;17.80;99.90
18950;DHT22;9608;49.288;8.130;2022-09-20T11:28:29;17.00;99.90
18950;DHT22;9608;49.288;8.130;2022-09-20T11:31:01;16.30;99.90
18950;DHT22;9608;49.288;8.130;2022-09-20T11:33:33;16.00;99.90
18950;DHT22;9608;49.288;8.130;2022-09-20T11:36:08;16.00;99.90
18950;DHT22;9608;49.288;8.130;2022-09-20T11:38:39;15.90;99.90
18950;DHT22;9608;49.288;8.130;2022-09-20T11:41:11;15.80;99.90
18950;DHT22;9608;49.288;8.130;2022-09-20T11:43:39;15.80;99.90
18950;DHT22;9608;49.288;8.130;2022-09-20T11:46:11;15.90;99.90
18950;DHT22;9608;49.288;8.130;2022-09-20T11:48:42;16.00;99.90
18950;DHT22;9608;49.288;8.130;2022-09-20T11:51:34;15.90;99.90
18950;DHT22;9608;49.288;8.130;2022-09-20T11:54:30;15.20;99.90
18950;DHT22;9608;49.288;8.130;2022-09-20T11:57:00;14.80;99.90
18950;DHT22;9608;49.288;8.130;2022-09-20T11:59:31;14.70;99.90
18950;DHT22;9608;49.288;8.130;2022-09-20T12:02:00;14.60;99.90
18950;DHT22;9608;49.288;8.130;2022-09-20T12:04:30;14.80;99.90
18950;DHT22;9608;49.288;8.130;2022-09-20T12:07:02;14.80;99.90
18950;DHT22;9608;49.288;8.130;2022-09-20T12:09:32;14.80;99.90
18950;DHT22;9608;49.288;8.130;2022-09-20T12:12:13;15.00;99.90
18950;DHT22;9608;49.288;8.130;2022-09-20T12:14:41;15.10;99.90
18950;DHT22;9608;49.288;8.130;2022-09-20T12:23:45;15.50;99.90
18950;DHT22;9608;49.288;8.130;2022-09-20T12:26:38;15.70;99.90
18950;DHT22;9608;49.288;8.130;2022-09-20T12:32:55;15.60;99.90
18950;DHT22;9608;49.288;8.130;2022-09-20T12:35:56;15.50;99.90
18950;DHT22;9608;49.288;8.130;2022-09-20T12:38:38;15.20;99.90
18950;DHT22;9608;49.288;8.130;2022-09-20T12:41:15;15.20;99.90
18950;DHT22;9608;49.288;8.130;2022-09-20T12:44:01;15.20;99.90
18950;DHT22;9608;49.288;8.130;2022-09-20T12:46:33;15.40;99.90
18950;DHT22;9608;49.288;8.130;2022-09-20T12:49:41;15.90;99.90
18950;DHT22;9608;49.288;8.130;2022-09-20T12:52:51;16.40;99.90
18950;DHT22;9608;49.288;8.130;2022-09-20T12:55:36;16.90;99.90
18950;DHT22;9608;49.288;8.130;2022-09-20T12:58:23;17.30;99.90
18950;DHT22;9608;49.288;8.130;2022-09-20T13:01:32;17.30;99.90
18950;DHT22;9608;49.288;8.130;2022-09-20T13:04:50;17.80;99.90
18950;DHT22;9608;49.288;8.130;2022-09-20T13:07:42;18.00;99.90
18950;DHT22;9608;49.288;8.130;2022-09-20T13:10:33;18.00;99.90
18950;DHT22;9608;49.288;8.130;2022-09-20T13:13:24;17.90;99.90
18950;DHT22;9608;49.288;8.130;2022-09-20T13:15:54;17.50;99.90
18950;DHT22;9608;49.288;8.130;2022-09-20T13:18:22;16.90;99.90
18950;DHT22;9608;49.288;8.130;2022-09-20T13:20:50;16.00;99.90
18950;DHT22;9608;49.288;8.130;2022-09-20T13:23:22;15.30;99.90
18950;DHT22;9608;49.288;8.130;2022-09-20T13:25:50;14.60;99.90
18950;DHT22;9608;49.288;8.130;2022-09-20T13:28:29;14.10;99.90
18950;DHT22;9608;49.288;8.130;2022-09-20T13:31:25;14.00;99.90
18950;DHT22;9608;49.288;8.130;2022-09-20T13:33:52;14.00;99.90
18950;DHT22;9608;49.288;8.130;2022-09-20T13:36:24;14.40;99.90
18950;DHT22;9608;49.288;8.130;2022-09-20T13:38:52;14.70;99.90
18950;DHT22;9608;49.288;8.130;2022-09-20T13:41:20;14.80;99.90
18950;DHT22;9608;49.288;8.130;2022-09-20T13:43:49;15.10;99.90
18950;DHT22;9608;49.288;8.130;2022-09-20T13:46:22;15.40;99.90
18950;DHT22;9608;49.288;8.130;2022-09-20T13:48:53;15.70;99.90
18950;DHT22;9608;49.288;8.130;2022-09-20T13:51:24;15.70;99.90
18950;DHT22;9608;49.288;8.130;2022-09-20T13:53:51;15.50;99.90
18950;DHT22;9608;49.288;8.130;2022-09-20T13:56:20;15.40;99.90
18950;DHT22;9608;49.288;8.130;2022-09-20T13:58:50;15.30;99.90
18950;DHT22;9608;49.288;8.130;2022-09-20T14:01:26;15.30;99.90
18950;DHT22;9608;49.288;8.130;2022-09-20T14:04:00;15.20;99.90
18950;DHT22;9608;49.288;8.130;2022-09-20T14:06:28;15.20;99.90
18950;DHT22;9608;49.288;8.130;2022-09-20T14:08:55;15.20;99.90
18950;DHT22;9608;49.288;8.130;2022-09-20T14:11:25;15.20;99.90
18950;DHT22;9608;49.288;8.130;2022-09-20T14:13:55;15.20;99.90
18950;DHT22;9608;49.288;8.130;2022-09-20T14:16:27;15.20;99.90
18950;DHT22;9608;49.288;8.130;2022-09-20T14:18:56;15.20;99.90
18950;DHT22;9608;49.288;8.130;2022-09-20T14:21:25;15.40;99.90
18950;DHT22;9608;49.288;8.130;2022-09-20T14:23:53;15.50;99.90
18950;DHT22;9608;49.288;8.130;2022-09-20T14:26:24;15.50;99.90
18950;DHT22;9608;49.288;8.130;2022-09-20T14:28:51;15.60;99.90
18950;DHT22;9608;49.288;8.130;2022-09-20T14:31:22;15.70;99.90
18950;DHT22;9608;49.288;8.130;2022-09-20T14:33:52;15.80;99.90
18950;DHT22;9608;49.288;8.130;2022-09-20T14:36:21;15.80;99.90
18950;DHT22;9608;49.288;8.130;2022-09-20T14:38:50;15.80;99.90
18950;DHT22;9608;49.288;8.130;2022-09-20T14:41:26;15.80;99.90
18950;DHT22;9608;49.288;8.130;2022-09-20T14:43:57;15.80;99.90
18950;DHT22;9608;49.288;8.130;2022-09-20T14:46:31;15.80;99.90
18950;DHT22;9608;49.288;8.130;2022-09-20T14:49:19;15.90;99.90
18950;DHT22;9608;49.288;8.130;2022-09-20T14:51:46;16.00;99.90
18950;DHT22;9608;49.288;8.130;2022-09-20T14:54:24;16.10;99.90
18950;DHT22;9608;49.288;8.130;2022-09-20T14:56:51;16.40;99.90
18950;DHT22;9608;49.288;8.130;2022-09-20T14:59:21;16.40;99.90
18950;DHT22;9608;49.288;8.130;2022-09-20T15:02:03;16.30;99.90
18950;DHT22;9608;49.288;8.130;2022-09-20T15:04:30;16.30;99.90
18950;DHT22;9608;49.288;8.130;2022-09-20T15:07:00;16.30;99.90
18950;DHT22;9608;49.288;8.130;2022-09-20T15:09:27;16.20;99.90
18950;DHT22;9608;49.288;8.130;2022-09-20T15:12:10;16.10;99.90
18950;DHT22;9608;49.288;8.130;2022-09-20T15:14:38;16.00;99.90
18950;DHT22;9608;49.288;8.130;2022-09-20T15:17:10;15.80;99.90
18950;DHT22;9608;49.288;8.130;2022-09-20T15:19:39;15.70;99.90
18950;DHT22;9608;49.288;8.130;2022-09-20T15:22:07;15.70;99.90
18950;DHT22;9608;49.288;8.130;2022-09-20T15:24:34;15.70;99.90
18950;DHT22;9608;49.288;8.130;2022-09-20T15:27:00;15.60;99.90
18950;DHT22;9608;49.288;8.130;2022-09-20T15:29:27;15.70;99.90
18950;DHT22;9608;49.288;8.130;2022-09-20T15:31:54;15.80;99.90
18950;DHT22;9608;49.288;8.130;2022-09-20T15:34:22;15.80;99.90
18950;DHT22;9608;49.288;8.130;2022-09-20T15:36:49;16.00;99.90
18950;DHT22;9608;49.288;8.130;2022-09-20T15:39:16;16.20;99.90
18950;DHT22;9608;49.288;8.130;2022-09-20T15:41:42;16.20;99.90
18950;DHT22;9608;49.288;8.130;2022-09-20T15:44:10;16.20;99.90
18950;DHT22;9608;49.288;8.130;2022-09-20T15:46:37;16.20;99.90
18950;DHT22;9608;49.288;8.130;2022-09-20T15:49:03;16.10;99.90
18950;DHT22;9608;49.288;8.130;2022-09-20T15:51:34;16.10;99.90
18950;DHT22;9608;49.288;8.130;2022-09-20T15:54:02;16.00;99.90
18950;DHT22;9608;49.288;8.130;2022-09-20T15:56:33;16.00;99.90
18950;DHT22;9608;49.288;8.130;2022-09-20T15:59:01;16.00;99.90
18950;DHT22;9608;49.288;8.130;2022-09-20T16:01:30;16.00;99.90
18950;DHT22;9608;49.288;8.130;2022-09-20T16:03:57;15.90;99.90
18950;DHT22;9608;49.288;8.130;2022-09-20T16:06:25;15.80;99.90
18950;DHT22;9608;49.288;8.130;2022-09-20T16:08:54;15.80;99.90
18950;DHT22;9608;49.288;8.130;2022-09-20T16:11:21;15.70;99.90
18950;DHT22;9608;49.288;8.130;2022-09-20T16:13:51;15.60;99.90
18950;DHT22;9608;49.288;8.130;2022-09-20T16:16:19;15.60;99.90
18950;DHT22;9608;49.288;8.130;2022-09-20T16:18:46;15.50;99.90
18950;DHT22;9608;49.288;8.130;2022-09-20T16:21:30;15.40;99.90
18950;DHT22;9608;49.288;8.130;2022-09-20T16:23:58;15.30;99.90
18950;DHT22;9608;49.288;8.130;2022-09-20T16:26:27;15.20;99.90
18950;DHT22;9608;49.288;8.130;2022-09-20T16:28:55;15.20;99.90
18950;DHT22;9608;49.288;8.130;2022-09-20T16:31:31;15.30;99.90
18950;DHT22;9608;49.288;8.130;2022-09-20T16:33:59;15.30;99.90
18950;DHT22;9608;49.288;8.130;2022-09-20T16:36:27;15.20;99.90
18950;DHT22;9608;49.288;8.130;2022-09-20T16:38:53;15.20;99.90
18950;DHT22;9608;49.288;8.130;2022-09-20T16:41:22;15.30;99.90
18950;DHT22;9608;49.288;8.130;2022-09-20T16:43:50;15.20;99.90
18950;DHT22;9608;49.288;8.130;2022-09-20T16:46:17;15.20;99.90
18950;DHT22;9608;49.288;8.130;2022-09-20T16:48:45;15.20;99.90
18950;DHT22;9608;49.288;8.130;2022-09-20T16:51:13;15.30;99.90
18950;DHT22;9608;49.288;8.130;2022-09-20T16:53:39;15.30;99.90
18950;DHT22;9608;49.288;8.130;2022-09-20T16:56:17;15.20;99.90
18950;DHT22;9608;49.288;8.130;2022-09-20T16:58:47;15.10;99.90
18950;DHT22;9608;49.288;8.130;2022-09-20T17:01:14;15.00;99.90
18950;DHT22;9608;49.288;8.130;2022-09-20T17:03:41;15.00;99.90
18950;DHT22;9608;49.288;8.130;2022-09-20T17:06:09;14.90;99.90